sensor_id;sensor_type;location;lat;lon;timestamp;temperature;humidity
983;DHT22;480;48.124;11.578;2023-02-01T00:02:26;4.50;99.90
983;DHT22;480;48.124;11.578;2023-02-01T00:04:53;4.40;99.90
983;DHT22;480;48.124;11.578;2023-02-01T00:07:20;4.60;99.90
983;DHT22;480;48.124;11.578;2023-02-01T00:09:47;4.40;99.90
983;DHT22;480;48.124;11.578;2023-02-01T00:12:14;4.50;99.90
983;DHT22;480;48.124;11.578;2023-02-01T00:14:41;4.50;99.90
983;DHT22;480;48.124;11.578;2023-02-01T00:17:08;4.50;99.90
983;DHT22;480;48.124;11.578;2023-02-01T00:19:36;4.50;99.90
983;DHT22;480;48.124;11.578;2023-02-01T00:22:03;4.50;99.90
983;DHT22;480;48.124;11.578;2023-02-01T00:24:30;4.50;99.90
983;DHT22;480;48.124;11.578;2023-02-01T00:26:58;4.50;99.90
983;DHT22;480;48.124;11.578;2023-02-01T00:29:25;4.50;99.90
983;DHT22;480;48.124;11.578;2023-02-01T00:31:52;4.60;99.90
983;DHT22;480;48.124;11.578;2023-02-01T00:34:19;4.60;99.90
983;DHT22;480;48.124;11.578;2023-02-01T00:36:48;4.60;99.90
983;DHT22;480;48.124;11.578;2023-02-01T00:39:15;4.60;99.90
983;DHT22;480;48.124;11.578;2023-02-01T00:41:42;4.50;99.90
983;DHT22;480;48.124;11.578;2023-02-01T00:44:09;4.50;99.90
983;DHT22;480;48.124;11.578;2023-02-01T00:46:38;4.50;99.90
983;DHT22;480;48.124;11.578;2023-02-01T00:49:05;4.50;99.90
983;DHT22;480;48.124;11.578;2023-02-01T00:51:33;4.40;99.90
983;DHT22;480;48.124;11.578;2023-02-01T00:54:01;4.30;99.90
983;DHT22;480;48.124;11.578;2023-02-01T00:56:29;4.20;99.90
983;DHT22;480;48.124;11.578;2023-02-01T00:58:56;4.10;99.90
983;DHT22;480;48.124;11.578;2023-02-01T01:01:24;4.00;99.90
983;DHT22;480;48.124;11.578;2023-02-01T01:03:54;3.90;99.90
983;DHT22;480;48.124;11.578;2023-02-01T01:06:23;3.80;99.90
983;DHT22;480;48.124;11.578;2023-02-01T01:08:52;3.80;99.90
983;DHT22;480;48.124;11.578;2023-02-01T01:11:22;3.80;99.90
983;DHT22;480;48.124;11.578;2023-02-01T01:13:51;3.80;99.90
983;DHT22;480;48.124;11.578;2023-02-01T01:16:19;3.70;99.90
983;DHT22;480;48.124;11.578;2023-02-01T01:18:47;3.60;99.90
983;DHT22;480;48.124;11.578;2023-02-01T01:21:15;3.60;99.90
983;DHT22;480;48.124;11.578;2023-02-01T01:23:43;3.70;99.90
983;DHT22;480;48.124;11.578;2023-02-01T01:26:14;3.70;99.90
983;DHT22;480;48.124;11.578;2023-02-01T01:28:43;3.80;99.90
983;DHT22;480;48.124;11.578;2023-02-01T01:31:11;3.80;99.90
983;DHT22;480;48.124;11.578;2023-02-01T01:33:38;3.80;99.90
983;DHT22;480;48.124;11.578;2023-02-01T01:36:06;3.80;99.90
983;DHT22;480;48.124;11.578;2023-02-01T01:38:35;3.90;99.90
983;DHT22;480;48.124;11.578;2023-02-01T01:41:02;3.90;99.90
983;DHT22;480;48.124;11.578;2023-02-01T01:46:27;3.90;99.90
983;DHT22;480;48.124;11.578;2023-02-01T01:49:02;3.80;99.90
983;DHT22;480;48.124;11.578;2023-02-01T01:51:32;3.80;99.90
983;DHT22;480;48.124;11.578;2023-02-01T01:54:04;3.80;99.90
983;DHT22;480;48.124;11.578;2023-02-01T01:56:34;3.80;99.90
983;DHT22;480;48.124;11.578;2023-02-01T01:59:01;3.80;99.90
983;DHT22;480;48.124;11.578;2023-02-01T02:01:30;3.70;99.90
983;DHT22;480;48.124;11.578;2023-02-01T02:03:58;3.70;99.90
983;DHT22;480;48.124;11.578;2023-02-01T02:06:34;3.60;99.90
983;DHT22;480;48.124;11.578;2023-02-01T02:09:04;3.60;99.90
983;DHT22;480;48.124;11.578;2023-02-01T02:11:31;3.50;99.90
983;DHT22;480;48.124;11.578;2023-02-01T02:13:58;3.50;99.90
983;DHT22;480;48.124;11.578;2023-02-01T02:23:08;3.50;99.90
983;DHT22;480;48.124;11.578;2023-02-01T02:26:00;3.50;99.90
983;DHT22;480;48.124;11.578;2023-02-01T02:28:59;3.50;99.90
983;DHT22;480;48.124;11.578;2023-02-01T02:31:45;3.40;99.90
983;DHT22;480;48.124;11.578;2023-02-01T02:34:18;3.40;99.90
983;DHT22;480;48.124;11.578;2023-02-01T02:36:55;3.40;99.90
983;DHT22;480;48.124;11.578;2023-02-01T02:39:32;3.50;99.90
983;DHT22;480;48.124;11.578;2023-02-01T02:42:04;3.50;99.90
983;DHT22;480;48.124;11.578;2023-02-01T02:44:57;3.60;99.90
983;DHT22;480;48.124;11.578;2023-02-01T02:47:45;3.50;99.90
983;DHT22;480;48.124;11.578;2023-02-01T02:50:24;3.50;99.90
983;DHT22;480;48.124;11.578;2023-02-01T02:53:13;3.60;99.90
983;DHT22;480;48.124;11.578;2023-02-01T02:56:03;3.60;99.90
983;DHT22;480;48.124;11.578;2023-02-01T02:58:48;3.60;99.90
983;DHT22;480;48.124;11.578;2023-02-01T03:01:34;3.60;99.90
983;DHT22;480;48.124;11.578;2023-02-01T03:04:18;3.60;99.90
983;DHT22;480;48.124;11.578;2023-02-01T03:06:47;3.60;99.90
983;DHT22;480;48.124;11.578;2023-02-01T03:09:20;3.70;99.90
983;DHT22;480;48.124;11.578;2023-02-01T03:11:50;3.70;99.90
983;DHT22;480;48.124;11.578;2023-02-01T03:14:41;3.70;99.90
983;DHT22;480;48.124;11.578;2023-02-01T03:17:14;3.80;99.90
983;DHT22;480;48.124;11.578;2023-02-01T03:19:45;3.80;99.90
983;DHT22;480;48.124;11.578;2023-02-01T03:22:19;3.90;99.90
983;DHT22;480;48.124;11.578;2023-02-01T03:24:49;3.80;99.90
983;DHT22;480;48.124;11.578;2023-02-01T03:27:21;3.80;99.90
983;DHT22;480;48.124;11.578;2023-02-01T03:29:52;3.80;99.90
983;DHT22;480;48.124;11.578;2023-02-01T03:32:21;3.90;99.90
983;DHT22;480;48.124;11.578;2023-02-01T03:34:50;3.80;99.90
983;DHT22;480;48.124;11.578;2023-02-01T03:37:24;3.90;99.90
983;DHT22;480;48.124;11.578;2023-02-01T03:39:56;4.00;99.90
983;DHT22;480;48.124;11.578;2023-02-01T03:42:29;4.00;99.90
983;DHT22;480;48.124;11.578;2023-02-01T03:45:01;4.10;99.90
983;DHT22;480;48.124;11.578;2023-02-01T03:47:35;4.10;99.90
983;DHT22;480;48.124;11.578;2023-02-01T03:50:05;4.10;99.90
983;DHT22;480;48.124;11.578;2023-02-01T03:52:38;4.00;99.90
983;DHT22;480;48.124;11.578;2023-02-01T03:55:07;4.00;99.90
983;DHT22;480;48.124;11.578;2023-02-01T03:57:38;4.00;99.90
983;DHT22;480;48.124;11.578;2023-02-01T04:00:07;4.00;99.90
983;DHT22;480;48.124;11.578;2023-02-01T04:02:35;4.00;99.90
983;DHT22;480;48.124;11.578;2023-02-01T04:05:02;4.00;99.90
983;DHT22;480;48.124;11.578;2023-02-01T04:07:30;4.00;99.90
983;DHT22;480;48.124;11.578;2023-02-01T04:09:59;4.10;99.90
983;DHT22;480;48.124;11.578;2023-02-01T04:12:26;4.00;99.90
983;DHT22;480;48.124;11.578;2023-02-01T04:14:53;4.10;99.90
983;DHT22;480;48.124;11.578;2023-02-01T04:17:20;4.10;99.90
983;DHT22;480;48.124;11.578;2023-02-01T04:19:46;4.10;99.90
983;DHT22;480;48.124;11.578;2023-02-01T04:22:14;4.10;99.90
983;DHT22;480;48.124;11.578;2023-02-01T04:24:40;4.10;99.90
983;DHT22;480;48.124;11.578;2023-02-01T04:27:09;4.10;99.90
983;DHT22;480;48.124;11.578;2023-02-01T04:29:38;4.10;99.90
983;DHT22;480;48.124;11.578;2023-02-01T04:32:05;4.10;99.90
983;DHT22;480;48.124;11.578;2023-02-01T04:34:33;4.10;99.90
983;DHT22;480;48.124;11.578;2023-02-01T04:37:00;4.10;99.90
983;DHT22;480;48.124;11.578;2023-02-01T04:39:28;4.10;99.90
983;DHT22;480;48.124;11.578;2023-02-01T04:41:55;4.10;99.90
983;DHT22;480;48.124;11.578;2023-02-01T04:44:24;4.10;99.90
983;DHT22;480;48.124;11.578;2023-02-01T04:46:51;4.00;99.90
983;DHT22;480;48.124;11.578;2023-02-01T04:49:18;4.00;99.90
983;DHT22;480;48.124;11.578;2023-02-01T04:51:46;4.00;99.90
983;DHT22;480;48.124;11.578;2023-02-01T04:54:13;4.00;99.90
983;DHT22;480;48.124;11.578;2023-02-01T04:56:41;4.10;99.90
983;DHT22;480;48.124;11.578;2023-02-01T04:59:11;4.10;99.90
983;DHT22;480;48.124;11.578;2023-02-01T05:01:39;4.00;99.90
983;DHT22;480;48.124;11.578;2023-02-01T05:04:06;4.00;99.90
983;DHT22;480;48.124;11.578;2023-02-01T05:06:33;4.00;99.90
983;DHT22;480;48.124;11.578;2023-02-01T05:09:00;4.10;99.90
983;DHT22;480;48.124;11.578;2023-02-01T05:11:27;4.10;99.90
983;DHT22;480;48.124;11.578;2023-02-01T05:14:11;4.10;99.90
983;DHT22;480;48.124;11.578;2023-02-01T05:16:40;4.10;99.90
983;DHT22;480;48.124;11.578;2023-02-01T05:19:07;4.10;99.90
983;DHT22;480;48.124;11.578;2023-02-01T05:21:34;4.10;99.90
983;DHT22;480;48.124;11.578;2023-02-01T05:24:02;4.10;99.90
983;DHT22;480;48.124;11.578;2023-02-01T05:26:42;4.10;99.90
983;DHT22;480;48.124;11.578;2023-02-01T05:29:10;4.10;99.90
983;DHT22;480;48.124;11.578;2023-02-01T05:31:37;4.10;99.90
983;DHT22;480;48.124;11.578;2023-02-01T05:34:06;4.10;99.90
983;DHT22;480;48.124;11.578;2023-02-01T05:36:33;4.10;99.90
983;DHT22;480;48.124;11.578;2023-02-01T05:39:00;4.20;99.90
983;DHT22;480;48.124;11.578;2023-02-01T05:41:27;4.20;99.90
983;DHT22;480;48.124;11.578;2023-02-01T05:43:54;4.20;99.90
983;DHT22;480;48.124;11.578;2023-02-01T05:46:21;4.10;99.90
983;DHT22;480;48.124;11.578;2023-02-01T05:48:48;4.10;99.90
983;DHT22;480;48.124;11.578;2023-02-01T05:51:17;4.10;99.90
983;DHT22;480;48.124;11.578;2023-02-01T05:53:44;4.10;99.90
983;DHT22;480;48.124;11.578;2023-02-01T05:56:11;4.10;99.90
983;DHT22;480;48.124;11.578;2023-02-01T05:58:38;4.10;99.90
983;DHT22;480;48.124;11.578;2023-02-01T06:01:05;4.10;99.90
983;DHT22;480;48.124;11.578;2023-02-01T06:03:32;4.10;99.90
983;DHT22;480;48.124;11.578;2023-02-01T06:05:59;4.10;99.90
983;DHT22;480;48.124;11.578;2023-02-01T06:08:28;4.10;99.90
983;DHT22;480;48.124;11.578;2023-02-01T06:10:59;4.10;99.90
983;DHT22;480;48.124;11.578;2023-02-01T06:13:26;4.10;99.90
983;DHT22;480;48.124;11.578;2023-02-01T06:15:53;4.20;99.90
983;DHT22;480;48.124;11.578;2023-02-01T06:18:23;4.10;99.90
983;DHT22;480;48.124;11.578;2023-02-01T06:20:53;4.10;99.90
983;DHT22;480;48.124;11.578;2023-02-01T06:23:21;4.20;99.90
983;DHT22;480;48.124;11.578;2023-02-01T06:25:51;4.10;99.90
983;DHT22;480;48.124;11.578;2023-02-01T06:28:18;4.20;99.90
983;DHT22;480;48.124;11.578;2023-02-01T06:30:45;4.20;99.90
983;DHT22;480;48.124;11.578;2023-02-01T06:33:13;4.10;99.90
983;DHT22;480;48.124;11.578;2023-02-01T06:35:41;4.10;99.90
983;DHT22;480;48.124;11.578;2023-02-01T06:38:10;4.10;99.90
983;DHT22;480;48.124;11.578;2023-02-01T06:40:37;4.10;99.90
983;DHT22;480;48.124;11.578;2023-02-01T06:43:06;4.10;99.90
983;DHT22;480;48.124;11.578;2023-02-01T06:45:33;4.10;99.90
983;DHT22;480;48.124;11.578;2023-02-01T06:48:00;4.10;99.90
983;DHT22;480;48.124;11.578;2023-02-01T06:50:29;4.30;99.90
983;DHT22;480;48.124;11.578;2023-02-01T06:52:56;4.30;99.90
983;DHT22;480;48.124;11.578;2023-02-01T06:55:23;4.30;99.90
983;DHT22;480;48.124;11.578;2023-02-01T06:57:53;4.30;99.90
983;DHT22;480;48.124;11.578;2023-02-01T07:00:23;4.40;99.90
983;DHT22;480;48.124;11.578;2023-02-01T07:02:50;4.40;99.90
983;DHT22;480;48.124;11.578;2023-02-01T07:05:17;4.40;99.90
983;DHT22;480;48.124;11.578;2023-02-01T07:07:44;4.40;99.90
983;DHT22;480;48.124;11.578;2023-02-01T07:10:12;4.40;99.90
983;DHT22;480;48.124;11.578;2023-02-01T07:12:39;4.30;99.90
983;DHT22;480;48.124;11.578;2023-02-01T07:15:07;4.40;99.90
983;DHT22;480;48.124;11.578;2023-02-01T07:17:36;4.40;99.90
983;DHT22;480;48.124;11.578;2023-02-01T07:20:04;4.30;99.90
983;DHT22;480;48.124;11.578;2023-02-01T07:22:32;4.20;99.90
983;DHT22;480;48.124;11.578;2023-02-01T07:24:59;4.30;99.90
983;DHT22;480;48.124;11.578;2023-02-01T07:27:26;4.30;99.90
983;DHT22;480;48.124;11.578;2023-02-01T07:29:54;4.40;99.90
983;DHT22;480;48.124;11.578;2023-02-01T07:32:25;4.40;99.90
983;DHT22;480;48.124;11.578;2023-02-01T07:34:54;4.40;99.90
983;DHT22;480;48.124;11.578;2023-02-01T07:37:21;4.50;99.90
983;DHT22;480;48.124;11.578;2023-02-01T07:39:49;4.40;99.90
983;DHT22;480;48.124;11.578;2023-02-01T07:42:17;4.50;99.90
983;DHT22;480;48.124;11.578;2023-02-01T07:44:44;4.60;99.90
983;DHT22;480;48.124;11.578;2023-02-01T07:47:11;4.60;99.90
983;DHT22;480;48.124;11.578;2023-02-01T07:49:41;4.50;99.90
983;DHT22;480;48.124;11.578;2023-02-01T07:52:10;4.50;99.90
983;DHT22;480;48.124;11.578;2023-02-01T07:54:38;4.50;99.90
983;DHT22;480;48.124;11.578;2023-02-01T07:57:05;4.50;99.90
983;DHT22;480;48.124;11.578;2023-02-01T07:59:34;4.60;99.90
983;DHT22;480;48.124;11.578;2023-02-01T08:02:01;4.60;99.90
983;DHT22;480;48.124;11.578;2023-02-01T08:04:27;4.60;99.90
983;DHT22;480;48.124;11.578;2023-02-01T08:06:54;4.60;99.90
983;DHT22;480;48.124;11.578;2023-02-01T08:09:23;4.50;99.90
983;DHT22;480;48.124;11.578;2023-02-01T08:11:50;4.60;99.90
983;DHT22;480;48.124;11.578;2023-02-01T08:14:19;4.60;99.90
983;DHT22;480;48.124;11.578;2023-02-01T08:16:46;4.60;99.90
983;DHT22;480;48.124;11.578;2023-02-01T08:19:13;4.60;99.90
983;DHT22;480;48.124;11.578;2023-02-01T08:21:41;4.70;99.90
983;DHT22;480;48.124;11.578;2023-02-01T08:24:09;4.70;99.90
983;DHT22;480;48.124;11.578;2023-02-01T08:26:37;4.70;99.90
983;DHT22;480;48.124;11.578;2023-02-01T08:29:07;4.70;99.90
983;DHT22;480;48.124;11.578;2023-02-01T08:31:35;4.80;99.90
983;DHT22;480;48.124;11.578;2023-02-01T08:34:03;4.80;99.90
983;DHT22;480;48.124;11.578;2023-02-01T08:36:31;4.90;99.90
983;DHT22;480;48.124;11.578;2023-02-01T08:38:59;4.80;99.90
983;DHT22;480;48.124;11.578;2023-02-01T08:41:28;4.80;99.90
983;DHT22;480;48.124;11.578;2023-02-01T08:43:58;4.80;99.90
983;DHT22;480;48.124;11.578;2023-02-01T08:46:25;4.90;99.90
983;DHT22;480;48.124;11.578;2023-02-01T08:48:54;4.90;99.90
983;DHT22;480;48.124;11.578;2023-02-01T08:51:22;5.00;99.90
983;DHT22;480;48.124;11.578;2023-02-01T08:53:50;5.00;99.90
983;DHT22;480;48.124;11.578;2023-02-01T08:56:18;5.00;99.90
983;DHT22;480;48.124;11.578;2023-02-01T08:58:45;5.10;99.90
983;DHT22;480;48.124;11.578;2023-02-01T09:01:17;5.10;99.90
983;DHT22;480;48.124;11.578;2023-02-01T09:03:44;5.10;99.90
983;DHT22;480;48.124;11.578;2023-02-01T09:06:14;5.20;99.90
983;DHT22;480;48.124;11.578;2023-02-01T09:08:41;5.30;99.90
983;DHT22;480;48.124;11.578;2023-02-01T09:11:12;5.20;99.90
983;DHT22;480;48.124;11.578;2023-02-01T09:13:39;5.20;99.90
983;DHT22;480;48.124;11.578;2023-02-01T09:16:08;5.20;99.90
983;DHT22;480;48.124;11.578;2023-02-01T09:18:36;5.20;99.90
983;DHT22;480;48.124;11.578;2023-02-01T09:21:04;5.20;99.90
983;DHT22;480;48.124;11.578;2023-02-01T09:23:31;5.30;99.90
983;DHT22;480;48.124;11.578;2023-02-01T09:25:59;5.30;99.90
983;DHT22;480;48.124;11.578;2023-02-01T09:28:26;5.40;99.90
983;DHT22;480;48.124;11.578;2023-02-01T09:30:55;5.50;99.90
983;DHT22;480;48.124;11.578;2023-02-01T09:33:29;5.50;99.90
983;DHT22;480;48.124;11.578;2023-02-01T09:36:00;5.50;99.90
983;DHT22;480;48.124;11.578;2023-02-01T09:38:27;5.50;99.90
983;DHT22;480;48.124;11.578;2023-02-01T09:40:55;5.60;99.90
983;DHT22;480;48.124;11.578;2023-02-01T09:43:34;5.60;99.90
983;DHT22;480;48.124;11.578;2023-02-01T09:46:18;5.60;99.90
983;DHT22;480;48.124;11.578;2023-02-01T09:48:45;5.60;99.90
983;DHT22;480;48.124;11.578;2023-02-01T09:51:16;5.70;99.90
983;DHT22;480;48.124;11.578;2023-02-01T09:53:56;5.70;99.90
983;DHT22;480;48.124;11.578;2023-02-01T09:56:29;5.70;99.90
983;DHT22;480;48.124;11.578;2023-02-01T09:59:09;5.70;99.90
983;DHT22;480;48.124;11.578;2023-02-01T10:01:37;5.70;99.90
983;DHT22;480;48.124;11.578;2023-02-01T10:04:08;5.70;99.90
983;DHT22;480;48.124;11.578;2023-02-01T10:06:56;5.70;99.90
983;DHT22;480;48.124;11.578;2023-02-01T10:09:35;5.50;99.90
983;DHT22;480;48.124;11.578;2023-02-01T10:12:22;5.50;99.90
983;DHT22;480;48.124;11.578;2023-02-01T10:15:01;5.50;99.90
983;DHT22;480;48.124;11.578;2023-02-01T10:17:40;5.60;99.90
983;DHT22;480;48.124;11.578;2023-02-01T10:20:18;5.60;99.90
983;DHT22;480;48.124;11.578;2023-02-01T10:22:58;5.60;99.90
983;DHT22;480;48.124;11.578;2023-02-01T10:25:30;5.60;99.90
983;DHT22;480;48.124;11.578;2023-02-01T10:28:00;5.60;99.90
983;DHT22;480;48.124;11.578;2023-02-01T10:30:31;5.50;99.90
983;DHT22;480;48.124;11.578;2023-02-01T10:33:12;5.60;99.90
983;DHT22;480;48.124;11.578;2023-02-01T10:35:41;5.60;99.90
983;DHT22;480;48.124;11.578;2023-02-01T10:38:17;5.60;99.90
983;DHT22;480;48.124;11.578;2023-02-01T10:40:46;5.60;99.90
983;DHT22;480;48.124;11.578;2023-02-01T10:43:13;5.60;99.90
983;DHT22;480;48.124;11.578;2023-02-01T10:45:40;5.60;99.90
983;DHT22;480;48.124;11.578;2023-02-01T10:48:09;5.60;99.90
983;DHT22;480;48.124;11.578;2023-02-01T10:50:39;5.60;99.90
983;DHT22;480;48.124;11.578;2023-02-01T10:53:14;5.50;99.90
983;DHT22;480;48.124;11.578;2023-02-01T10:55:47;5.70;99.90
983;DHT22;480;48.124;11.578;2023-02-01T10:58:20;5.60;99.90
983;DHT22;480;48.124;11.578;2023-02-01T11:00:52;5.50;99.90
983;DHT22;480;48.124;11.578;2023-02-01T11:03:36;5.60;99.90
983;DHT22;480;48.124;11.578;2023-02-01T11:06:10;5.60;99.90
983;DHT22;480;48.124;11.578;2023-02-01T11:08:46;5.60;99.90
983;DHT22;480;48.124;11.578;2023-02-01T11:11:15;5.50;99.90
983;DHT22;480;48.124;11.578;2023-02-01T11:13:42;5.50;99.90
983;DHT22;480;48.124;11.578;2023-02-01T11:16:13;5.50;99.90
983;DHT22;480;48.124;11.578;2023-02-01T11:18:41;5.50;99.90
983;DHT22;480;48.124;11.578;2023-02-01T11:21:10;5.60;99.90
983;DHT22;480;48.124;11.578;2023-02-01T11:23:43;5.60;99.90
983;DHT22;480;48.124;11.578;2023-02-01T11:26:13;5.60;99.90
983;DHT22;480;48.124;11.578;2023-02-01T11:28:48;5.60;99.90
983;DHT22;480;48.124;11.578;2023-02-01T11:31:17;5.60;99.90
983;DHT22;480;48.124;11.578;2023-02-01T11:33:49;5.50;99.90
983;DHT22;480;48.124;11.578;2023-02-01T11:36:20;5.50;99.90
983;DHT22;480;48.124;11.578;2023-02-01T11:38:54;5.50;99.90
983;DHT22;480;48.124;11.578;2023-02-01T11:41:41;5.40;99.90
983;DHT22;480;48.124;11.578;2023-02-01T11:44:21;5.40;99.90
983;DHT22;480;48.124;11.578;2023-02-01T11:46:49;5.40;99.90
983;DHT22;480;48.124;11.578;2023-02-01T11:49:21;5.50;99.90
983;DHT22;480;48.124;11.578;2023-02-01T11:52:07;5.50;99.90
983;DHT22;480;48.124;11.578;2023-02-01T11:54:53;5.40;99.90
983;DHT22;480;48.124;11.578;2023-02-01T11:57:38;5.30;99.90
983;DHT22;480;48.124;11.578;2023-02-01T12:00:29;5.40;99.90
983;DHT22;480;48.124;11.578;2023-02-01T12:03:10;5.40;99.90
983;DHT22;480;48.124;11.578;2023-02-01T12:05:50;5.40;99.90
983;DHT22;480;48.124;11.578;2023-02-01T12:08:31;5.50;99.90
983;DHT22;480;48.124;11.578;2023-02-01T12:11:27;5.50;99.90
983;DHT22;480;48.124;11.578;2023-02-01T12:14:04;5.40;99.90
983;DHT22;480;48.124;11.578;2023-02-01T12:16:40;5.40;99.90
983;DHT22;480;48.124;11.578;2023-02-01T12:19:29;5.30;99.90
983;DHT22;480;48.124;11.578;2023-02-01T12:22:08;5.30;99.90
983;DHT22;480;48.124;11.578;2023-02-01T12:30:42;5.20;99.90
983;DHT22;480;48.124;11.578;2023-02-01T12:33:18;5.20;99.90
983;DHT22;480;48.124;11.578;2023-02-01T12:36:06;5.20;99.90
983;DHT22;480;48.124;11.578;2023-02-01T12:39:01;5.10;99.90
983;DHT22;480;48.124;11.578;2023-02-01T12:42:04;5.10;99.90
983;DHT22;480;48.124;11.578;2023-02-01T12:44:46;5.10;99.90
983;DHT22;480;48.124;11.578;2023-02-01T12:47:21;5.00;99.90
983;DHT22;480;48.124;11.578;2023-02-01T12:49:55;5.00;99.90
983;DHT22;480;48.124;11.578;2023-02-01T12:52:28;5.00;99.90
983;DHT22;480;48.124;11.578;2023-02-01T12:55:06;5.00;99.90
983;DHT22;480;48.124;11.578;2023-02-01T12:57:36;4.90;99.90
983;DHT22;480;48.124;11.578;2023-02-01T13:00:17;5.00;99.90
983;DHT22;480;48.124;11.578;2023-02-01T13:02:52;5.00;99.90
983;DHT22;480;48.124;11.578;2023-02-01T13:05:22;5.00;99.90
983;DHT22;480;48.124;11.578;2023-02-01T13:07:55;5.10;99.90
983;DHT22;480;48.124;11.578;2023-02-01T13:10:31;5.10;99.90
983;DHT22;480;48.124;11.578;2023-02-01T13:13:04;5.10;99.90
983;DHT22;480;48.124;11.578;2023-02-01T13:15:39;5.10;99.90
983;DHT22;480;48.124;11.578;2023-02-01T13:18:14;5.10;99.90
983;DHT22;480;48.124;11.578;2023-02-01T13:20:47;5.20;99.90
983;DHT22;480;48.124;11.578;2023-02-01T13:23:23;5.20;99.90
983;DHT22;480;48.124;11.578;2023-02-01T13:25:53;5.20;99.90
983;DHT22;480;48.124;11.578;2023-02-01T13:28:25;5.10;99.90
983;DHT22;480;48.124;11.578;2023-02-01T13:31:17;5.10;99.90
983;DHT22;480;48.124;11.578;2023-02-01T13:33:59;5.20;99.90
983;DHT22;480;48.124;11.578;2023-02-01T13:36:41;5.20;99.90
983;DHT22;480;48.124;11.578;2023-02-01T13:39:34;5.10;99.90
983;DHT22;480;48.124;11.578;2023-02-01T13:42:04;5.10;99.90
983;DHT22;480;48.124;11.578;2023-02-01T13:44:37;5.10;99.90
983;DHT22;480;48.124;11.578;2023-02-01T13:47:16;5.20;99.90
983;DHT22;480;48.124;11.578;2023-02-01T13:49:45;5.20;99.90
983;DHT22;480;48.124;11.578;2023-02-01T13:52:25;5.30;99.90
983;DHT22;480;48.124;11.578;2023-02-01T13:55:03;5.30;99.90
983;DHT22;480;48.124;11.578;2023-02-01T13:57:42;5.30;99.90
983;DHT22;480;48.124;11.578;2023-02-01T14:00:23;5.30;99.90
983;DHT22;480;48.124;11.578;2023-02-01T14:03:22;5.30;99.90
983;DHT22;480;48.124;11.578;2023-02-01T14:06:39;5.30;99.90
983;DHT22;480;48.124;11.578;2023-02-01T14:09:16;5.30;99.90
983;DHT22;480;48.124;11.578;2023-02-01T14:11:47;5.20;99.90
983;DHT22;480;48.124;11.578;2023-02-01T14:14:44;5.10;99.90
983;DHT22;480;48.124;11.578;2023-02-01T14:17:31;5.10;99.90
983;DHT22;480;48.124;11.578;2023-02-01T14:23:02;5.10;99.90
983;DHT22;480;48.124;11.578;2023-02-01T14:25:32;5.10;99.90
983;DHT22;480;48.124;11.578;2023-02-01T14:28:01;5.00;99.90
983;DHT22;480;48.124;11.578;2023-02-01T14:30:28;5.10;99.90
983;DHT22;480;48.124;11.578;2023-02-01T14:32:55;5.10;99.90
983;DHT22;480;48.124;11.578;2023-02-01T14:35:25;5.10;99.90
983;DHT22;480;48.124;11.578;2023-02-01T14:37:58;5.00;99.90
983;DHT22;480;48.124;11.578;2023-02-01T14:40:30;5.10;99.90
983;DHT22;480;48.124;11.578;2023-02-01T14:42:57;5.10;99.90
983;DHT22;480;48.124;11.578;2023-02-01T14:45:48;5.20;99.90
983;DHT22;480;48.124;11.578;2023-02-01T14:48:45;5.10;99.90
983;DHT22;480;48.124;11.578;2023-02-01T14:51:15;5.10;99.90
983;DHT22;480;48.124;11.578;2023-02-01T14:53:43;5.10;99.90
983;DHT22;480;48.124;11.578;2023-02-01T14:56:16;5.10;99.90
983;DHT22;480;48.124;11.578;2023-02-01T14:58:51;5.10;99.90
983;DHT22;480;48.124;11.578;2023-02-01T15:01:21;5.00;99.90
983;DHT22;480;48.124;11.578;2023-02-01T15:03:55;5.00;99.90
983;DHT22;480;48.124;11.578;2023-02-01T15:06:27;5.00;99.90
983;DHT22;480;48.124;11.578;2023-02-01T15:09:01;5.00;99.90
983;DHT22;480;48.124;11.578;2023-02-01T15:11:31;5.00;99.90
983;DHT22;480;48.124;11.578;2023-02-01T15:13:59;5.00;99.90
983;DHT22;480;48.124;11.578;2023-02-01T15:16:26;5.00;99.90
983;DHT22;480;48.124;11.578;2023-02-01T15:19:10;5.00;99.90
983;DHT22;480;48.124;11.578;2023-02-01T15:21:44;5.00;99.90
983;DHT22;480;48.124;11.578;2023-02-01T15:24:12;5.00;99.90
983;DHT22;480;48.124;11.578;2023-02-01T15:26:41;5.00;99.90
983;DHT22;480;48.124;11.578;2023-02-01T15:29:11;5.00;99.90
983;DHT22;480;48.124;11.578;2023-02-01T15:31:41;4.90;99.90
983;DHT22;480;48.124;11.578;2023-02-01T15:34:10;4.90;99.90
983;DHT22;480;48.124;11.578;2023-02-01T15:36:38;4.80;99.90
983;DHT22;480;48.124;11.578;2023-02-01T15:39:22;4.70;99.90
983;DHT22;480;48.124;11.578;2023-02-01T15:41:54;4.70;99.90
983;DHT22;480;48.124;11.578;2023-02-01T15:44:34;4.60;99.90
983;DHT22;480;48.124;11.578;2023-02-01T15:47:10;4.60;99.90
983;DHT22;480;48.124;11.578;2023-02-01T15:49:41;4.50;99.90
983;DHT22;480;48.124;11.578;2023-02-01T15:52:21;4.50;99.90
983;DHT22;480;48.124;11.578;2023-02-01T15:54:53;4.50;99.90
983;DHT22;480;48.124;11.578;2023-02-01T15:57:25;4.50;99.90
983;DHT22;480;48.124;11.578;2023-02-01T15:59:57;4.50;99.90
983;DHT22;480;48.124;11.578;2023-02-01T16:02:26;4.50;99.90
983;DHT22;480;48.124;11.578;2023-02-01T16:04:54;4.60;99.90
983;DHT22;480;48.124;11.578;2023-02-01T16:07:26;4.50;99.90
983;DHT22;480;48.124;11.578;2023-02-01T16:09:55;4.60;99.90
983;DHT22;480;48.124;11.578;2023-02-01T16:12:31;4.50;99.90
983;DHT22;480;48.124;11.578;2023-02-01T16:15:00;4.50;99.90
983;DHT22;480;48.124;11.578;2023-02-01T16:17:28;4.60;99.90
983;DHT22;480;48.124;11.578;2023-02-01T16:19:55;4.60;99.90
983;DHT22;480;48.124;11.578;2023-02-01T16:22:25;4.50;99.90
983;DHT22;480;48.124;11.578;2023-02-01T16:24:53;4.50;99.90
983;DHT22;480;48.124;11.578;2023-02-01T16:27:20;4.60;99.90
983;DHT22;480;48.124;11.578;2023-02-01T16:29:49;4.60;99.90
983;DHT22;480;48.124;11.578;2023-02-01T16:32:18;4.60;99.90
983;DHT22;480;48.124;11.578;2023-02-01T16:34:46;4.50;99.90
983;DHT22;480;48.124;11.578;2023-02-01T16:37:17;4.60;99.90
983;DHT22;480;48.124;11.578;2023-02-01T16:39:45;4.60;99.90
983;DHT22;480;48.124;11.578;2023-02-01T16:42:14;4.60;99.90
983;DHT22;480;48.124;11.578;2023-02-01T16:44:42;4.60;99.90
983;DHT22;480;48.124;11.578;2023-02-01T16:47:16;4.60;99.90
983;DHT22;480;48.124;11.578;2023-02-01T16:49:43;4.60;99.90
983;DHT22;480;48.124;11.578;2023-02-01T16:52:16;4.70;99.90
983;DHT22;480;48.124;11.578;2023-02-01T16:54:44;4.70;99.90
983;DHT22;480;48.124;11.578;2023-02-01T16:57:12;4.80;99.90
983;DHT22;480;48.124;11.578;2023-02-01T16:59:40;4.80;99.90
983;DHT22;480;48.124;11.578;2023-02-01T17:02:13;4.80;99.90
983;DHT22;480;48.124;11.578;2023-02-01T17:04:40;4.80;99.90
983;DHT22;480;48.124;11.578;2023-02-01T17:07:11;4.70;99.90
983;DHT22;480;48.124;11.578;2023-02-01T17:09:39;4.80;99.90
983;DHT22;480;48.124;11.578;2023-02-01T17:12:21;4.80;99.90
983;DHT22;480;48.124;11.578;2023-02-01T17:14:48;4.80;99.90
983;DHT22;480;48.124;11.578;2023-02-01T17:17:19;4.80;99.90
983;DHT22;480;48.124;11.578;2023-02-01T17:19:49;4.80;99.90
983;DHT22;480;48.124;11.578;2023-02-01T17:22:17;4.90;99.90
983;DHT22;480;48.124;11.578;2023-02-01T17:24:45;4.90;99.90